Time;durP1;ratioP1;P1;durP2;ratioP2;P2;SDS_P1;SDS_P2;PMS_P1;PMS_P2;Temp;Humidity;BMP_temperature;BMP_pressure;BME280_temperature;BME280_humidity;BME280_pressure;Samples;Min_cycle;Max_cycle;Signal;HPM_P1;HPM_P2
2022/10/27 00:00:32;;;;;;;8.73;4.40;;;;;;;12.22;nan;-24158.34;5113637;28;20220;-77
2022/10/27 00:02:57;;;;;;;10.25;4.10;;;;;;;12.28;nan;-24160.03;5112687;28;20631;-77
2022/10/27 00:05:23;;;;;;;6.90;4.05;;;;;;;12.27;nan;-24159.63;5114340;28;20177;-76
2022/10/27 00:07:48;;;;;;;7.45;4.82;;;;;;;12.19;nan;-24157.50;5113998;28;20184;-77
2022/10/27 00:10:14;;;;;;;8.60;4.32;;;;;;;12.22;nan;-24158.34;5112494;28;20249;-77
2022/10/27 00:12:39;;;;;;;7.97;4.10;;;;;;;12.41;nan;-24163.56;5113796;28;20526;-76
2022/10/27 00:15:05;;;;;;;9.68;4.78;;;;;;;12.49;nan;-24165.66;5113826;28;20245;-77
2022/10/27 00:17:31;;;;;;;5.45;3.95;;;;;;;12.54;nan;-24167.06;5113961;28;20233;-76
2022/10/27 00:19:56;;;;;;;7.53;5.07;;;;;;;12.26;nan;-24159.34;5113643;28;20619;-77
2022/10/27 00:22:22;;;;;;;10.85;4.63;;;;;;;12.39;nan;-24163.13;5100888;28;20181;-77
2022/10/27 00:24:47;;;;;;;7.88;4.00;;;;;;;12.07;nan;-24154.13;5090742;28;20270;-77
2022/10/27 00:27:13;;;;;;;7.78;4.10;;;;;;;11.88;nan;-24148.78;5091471;28;20205;-77
2022/10/27 00:29:38;;;;;;;8.90;4.97;;;;;;;12.34;nan;-24161.72;5092555;28;20181;-75
2022/10/27 00:32:04;;;;;;;10.65;5.13;;;;;;;6.43;nan;-23996.50;5091248;28;20349;-76
2022/10/27 00:34:29;;;;;;;9.73;5.75;;;;;;;12.19;nan;-24157.38;5091224;28;20184;-76
2022/10/27 00:36:54;;;;;;;10.25;5.57;;;;;;;12.46;nan;-24164.81;5090649;28;20317;-76
2022/10/27 00:39:20;;;;;;;9.27;4.80;;;;;;;12.39;nan;-24163.13;5090910;28;20590;-76
2022/10/27 00:41:45;;;;;;;13.32;5.47;;;;;;;12.25;nan;-24159.06;5090896;28;20169;-76
2022/10/27 00:44:30;;;;;;;10.35;5.53;;;;;;;12.33;nan;-24161.31;5090817;28;20629;-76
2022/10/27 00:46:57;;;;;;;11.98;5.88;;;;;;;12.07;nan;-24154.13;5092437;28;20174;-76
2022/10/27 00:49:27;;;;;;;11.85;5.82;;;;;;;12.33;nan;-24161.44;5092140;28;20169;-76
2022/10/27 00:51:57;;;;;;;12.73;5.53;;;;;;;12.07;nan;-24154.00;5091896;28;20661;-76
2022/10/27 00:54:27;;;;;;;15.63;6.80;;;;;;;12.47;nan;-24165.09;5091165;28;20579;-76
2022/10/27 00:56:54;;;;;;;12.50;6.68;;;;;;;12.13;nan;-24155.81;5090877;28;20561;-76
2022/10/27 00:59:21;;;;;;;12.75;5.63;;;;;;;12.09;nan;-24154.69;5092170;28;20181;-76
2022/10/27 01:01:49;;;;;;;13.88;5.53;;;;;;;12.14;nan;-24156.09;5092503;28;20220;-76
2022/10/27 01:04:20;;;;;;;12.13;6.00;;;;;;;11.18;nan;-24129.19;5090908;28;20169;-76
2022/10/27 01:06:45;;;;;;;9.15;6.07;;;;;;;12.24;nan;-24158.78;5092212;28;20168;-76
2022/10/27 01:09:11;;;;;;;12.35;6.45;;;;;;;12.39;nan;-24163.00;5090766;28;20205;-76
2022/10/27 01:11:36;;;;;;;10.73;5.40;;;;;;;12.26;nan;-24159.34;5090411;28;20181;-76
2022/10/27 01:14:02;;;;;;;13.82;6.82;;;;;;;12.21;nan;-24158.06;5092245;28;20173;-76
2022/10/27 01:16:36;;;;;;;14.70;6.35;;;;;;;12.27;nan;-24159.75;5090840;28;20577;-76
2022/10/27 01:19:19;;;;;;;10.20;6.20;;;;;;;12.40;nan;-24163.41;5092765;28;20172;-76
2022/10/27 01:21:53;;;;;;;12.27;6.15;;;;;;;12.43;nan;-24163.97;5091889;28;20257;-76
2022/10/27 01:24:36;;;;;;;9.15;5.53;;;;;;;12.29;nan;-24160.31;5090372;28;20242;-76
2022/10/27 01:27:06;;;;;;;11.73;6.00;;;;;;;12.42;nan;-24163.84;5090293;28;20204;-76
2022/10/27 01:29:34;;;;;;;11.20;5.82;;;;;;;12.39;nan;-24163.13;5092164;28;20199;-77
2022/10/27 01:32:05;;;;;;;10.27;6.55;;;;;;;12.37;nan;-24162.44;5091931;28;20244;-77
2022/10/27 01:35:00;;;;;;;13.52;5.68;;;;;;;12.01;nan;-24152.44;5091835;28;20185;-76
2022/10/27 01:37:47;;;;;;;14.75;6.82;;;;;;;12.26;nan;-24159.34;5089859;28;20174;-76
2022/10/27 01:40:25;;;;;;;11.35;5.60;;;;;;;11.93;nan;-24150.19;5091434;28;20196;-76
2022/10/27 01:42:58;;;;;;;12.73;6.55;;;;;;;12.31;nan;-24160.75;5091604;28;20157;-76
2022/10/27 01:45:30;;;;;;;13.77;6.90;;;;;;;12.53;nan;-24166.94;5091910;28;20165;-76
2022/10/27 01:47:56;;;;;;;11.20;6.00;;;;;;;12.35;nan;-24161.88;5091437;28;20204;-76
2022/10/27 01:50:32;;;;;;;17.77;6.60;;;;;;;12.24;nan;-24158.91;5090229;28;20265;-76
2022/10/27 01:52:57;;;;;;;13.45;6.07;;;;;;;12.03;nan;-24153.00;5088973;28;20177;-76
2022/10/27 01:55:25;;;;;;;15.40;6.90;;;;;;;12.30;nan;-24160.59;5089990;28;20557;-76
2022/10/27 01:58:28;;;;;;;12.65;6.68;;;;;;;12.18;nan;-24157.22;5090018;28;20187;-76
2022/10/27 02:00:54;;;;;;;12.38;6.72;;;;;;;12.07;nan;-24154.13;5081065;28;20284;-77
2022/10/27 02:03:26;;;;;;;15.82;5.97;;;;;;;12.01;nan;-24152.44;5088625;28;20264;-77
2022/10/27 02:06:13;;;;;;;10.18;5.88;;;;;;;12.06;nan;-24153.69;5088632;28;20186;-76
2022/10/27 02:08:49;;;;;;;13.30;5.63;;;;;;;11.70;nan;-24143.69;5080666;28;20202;-76
2022/10/27 02:11:15;;;;;;;7.82;4.97;;;;;;;11.95;nan;-24150.75;5089062;28;20181;-77
2022/10/27 02:13:44;;;;;;;10.25;5.40;;;;;;;11.89;nan;-24149.06;5088610;28;20179;-76
2022/10/27 02:16:31;;;;;;;7.45;4.30;;;;;;;12.03;nan;-24153.00;5091299;28;20260;-77
2022/10/27 02:19:02;;;;;;;7.93;4.88;;;;;;;11.68;nan;-24143.13;5086861;28;20174;-76
2022/10/27 02:21:29;;;;;;;7.68;4.47;;;;;;;11.63;nan;-24141.88;5093984;28;20185;-76
2022/10/27 02:23:54;;;;;;;7.45;4.30;;;;;;;12.00;nan;-24152.00;5094306;28;20245;-76
2022/10/27 02:26:32;;;;;;;5.82;3.03;;;;;;;12.11;nan;-24155.25;5094838;28;20229;-76
2022/10/27 02:29:05;;;;;;;5.63;3.72;;;;;;;12.14;nan;-24156.09;5091703;28;20349;-76
2022/10/27 02:31:35;;;;;;;5.60;3.58;;;;;;;12.05;nan;-24153.56;5091068;28;20279;-76
2022/10/27 02:34:02;;;;;;;6.28;3.72;;;;;;;11.95;nan;-24150.88;5089794;28;20178;-77
2022/10/27 02:36:29;;;;;;;6.53;4.03;;;;;;;11.91;nan;-24149.63;5088765;28;20181;-76
2022/10/27 02:38:54;;;;;;;7.22;4.15;;;;;;;11.82;nan;-24147.22;5101540;28;20189;-76
2022/10/27 02:41:20;;;;;;;9.00;4.85;;;;;;;11.61;nan;-24141.16;5091926;28;20180;-76
2022/10/27 02:43:45;;;;;;;13.27;5.70;;;;;;;11.45;nan;-24136.81;5092085;28;20219;-75
2022/10/27 02:46:11;;;;;;;10.30;4.45;;;;;;;11.72;nan;-24144.25;5092741;28;20234;-76
2022/10/27 02:48:36;;;;;;;9.45;5.32;;;;;;;11.67;nan;-24143.00;5093503;28;20209;-76
2022/10/27 02:51:01;;;;;;;7.35;4.60;;;;;;;11.75;nan;-24145.13;5092546;28;20205;-76
2022/10/27 02:53:27;;;;;;;10.60;4.68;;;;;;;11.76;nan;-24145.53;5093074;28;20185;-76
2022/10/27 02:55:52;;;;;;;20.65;4.95;;;;;;;11.56;nan;-24139.91;5092316;28;20196;-75
2022/10/27 02:58:18;;;;;;;7.82;3.85;;;;;;;11.53;nan;-24139.19;5091234;28;20689;-76
2022/10/27 03:00:43;;;;;;;7.78;4.93;;;;;;;11.43;nan;-24136.38;5090910;28;20181;-76
2022/10/27 03:03:09;;;;;;;7.97;4.32;;;;;;;11.63;nan;-24141.88;5093409;28;20696;-77
2022/10/27 03:05:34;;;;;;;7.63;4.32;;;;;;;11.23;nan;-24130.59;5091202;28;20257;-77
2022/10/27 03:07:59;;;;;;;5.82;3.80;;;;;;;11.59;nan;-24140.59;5090852;28;20287;-76
2022/10/27 03:10:25;;;;;;;6.97;3.67;;;;;;;11.40;nan;-24135.38;5091587;28;20189;-75
2022/10/27 03:12:50;;;;;;;7.25;3.58;;;;;;;11.42;nan;-24136.09;5093573;28;21090;-77
2022/10/27 03:15:16;;;;;;;6.70;4.80;;;;;;;11.15;nan;-24128.47;5093596;28;20173;-76
2022/10/27 03:17:46;;;;;;;8.10;4.03;;;;;;;11.05;nan;-24125.66;5093142;28;20235;-76
2022/10/27 03:20:13;;;;;;;10.40;3.40;;;;;;;10.98;nan;-24123.84;5091466;28;20270;-76
2022/10/27 03:22:39;;;;;;;7.95;4.07;;;;;;;11.22;nan;-24130.31;5092111;28;20668;-76
2022/10/27 03:25:05;;;;;;;7.57;3.60;;;;;;;11.49;nan;-24138.06;5092125;28;20225;-76
2022/10/27 03:27:31;;;;;;;7.03;3.90;;;;;;;11.34;nan;-24133.84;5090267;28;20197;-75
2022/10/27 03:29:56;;;;;;;4.53;3.25;;;;;;;11.16;nan;-24128.75;5091498;28;20181;-76
2022/10/27 03:32:22;;;;;;;6.45;3.60;;;;;;;11.30;nan;-24132.72;5093082;28;20185;-76
2022/10/27 03:34:47;;;;;;;6.10;3.72;;;;;;;11.43;nan;-24136.22;5084575;28;20185;-77
2022/10/27 03:37:13;;;;;;;9.43;3.85;;;;;;;11.45;nan;-24136.81;5092504;28;20663;-77
2022/10/27 03:39:38;;;;;;;7.57;3.47;;;;;;;11.42;nan;-24135.97;5090712;28;20288;-76
2022/10/27 03:42:04;;;;;;;6.70;3.60;;;;;;;11.40;nan;-24135.38;5082153;28;20174;-76
2022/10/27 03:44:29;;;;;;;9.05;3.42;;;;;;;11.24;nan;-24130.88;5089324;28;20235;-77
2022/10/27 03:46:55;;;;;;;7.38;4.20;;;;;;;10.99;nan;-24123.97;5084662;28;20609;-77
2022/10/27 03:49:20;;;;;;;15.10;3.83;;;;;;;11.41;nan;-24135.81;5092222;28;20174;-76
2022/10/27 03:51:45;;;;;;;5.93;4.05;;;;;;;11.44;nan;-24136.50;5091382;28;20181;-76
2022/10/27 03:54:11;;;;;;;6.60;3.85;;;;;;;11.19;nan;-24129.59;5083456;28;20200;-76
2022/10/27 03:56:36;;;;;;;8.23;4.53;;;;;;;11.35;nan;-24134.13;5089231;28;20187;-76
2022/10/27 03:59:02;;;;;;;6.68;4.13;;;;;;;11.52;nan;-24138.91;5090786;28;20182;-76
2022/10/27 04:01:34;;;;;;;10.02;4.35;;;;;;;11.20;nan;-24129.88;5090712;28;20184;-75
2022/10/27 04:03:59;;;;;;;15.82;4.57;;;;;;;11.48;nan;-24137.78;5091510;28;20177;-75
2022/10/27 04:06:25;;;;;;;5.75;3.55;;;;;;;11.33;nan;-24133.41;5091500;28;20501;-77
2022/10/27 04:08:50;;;;;;;4.53;2.97;;;;;;;11.39;nan;-24135.25;5090207;28;20212;-76
2022/10/27 04:11:16;;;;;;;4.85;3.05;;;;;;;10.37;nan;-24106.63;5091488;28;20196;-76
2022/10/27 04:13:41;;;;;;;7.30;3.63;;;;;;;11.40;nan;-24135.38;5090457;28;20181;-76
2022/10/27 04:16:07;;;;;;;8.65;4.47;;;;;;;11.46;nan;-24137.09;5089881;28;20203;-76
2022/10/27 04:18:33;;;;;;;7.05;4.20;;;;;;;9.87;nan;-24092.63;5092130;28;20188;-76
2022/10/27 04:21:01;;;;;;;4.35;3.30;;;;;;;11.52;nan;-24138.91;5089589;28;20185;-76
2022/10/27 04:23:26;;;;;;;8.07;3.78;;;;;;;11.53;nan;-24139.19;5089746;28;20178;-76
2022/10/27 04:25:52;;;;;;;7.00;3.78;;;;;;;11.29;nan;-24132.28;5088537;28;20231;-76
2022/10/27 04:28:18;;;;;;;7.82;3.97;;;;;;;11.61;nan;-24141.16;5089227;28;20365;-77
2022/10/27 04:30:44;;;;;;;7.80;4.13;;;;;;;11.55;nan;-24139.47;5092640;28;20181;-76
2022/10/27 04:33:09;;;;;;;12.80;4.53;;;;;;;11.06;nan;-24125.94;5086047;28;20272;-76
2022/10/27 04:35:35;;;;;;;10.13;4.32;;;;;;;11.49;nan;-24137.94;5071451;28;20185;-75
2022/10/27 04:38:00;;;;;;;8.57;4.80;;;;;;;11.69;nan;-24143.41;5082077;28;20693;-75
2022/10/27 04:40:28;;;;;;;7.45;4.22;;;;;;;11.73;nan;-24144.69;5091060;28;20173;-77
2022/10/27 04:42:54;;;;;;;6.40;4.20;;;;;;;11.32;nan;-24133.13;5091491;28;20192;-77
2022/10/27 04:45:20;;;;;;;5.67;3.73;;;;;;;11.72;nan;-24144.25;5092532;28;20177;-75
2022/10/27 04:47:45;;;;;;;8.10;4.93;;;;;;;11.69;nan;-24143.56;5087620;28;20214;-76
2022/10/27 04:50:12;;;;;;;6.67;3.93;;;;;;;11.68;nan;-24143.28;5072378;28;20197;-75
2022/10/27 04:52:38;;;;;;;8.43;4.15;;;;;;;11.75;nan;-24145.13;5072105;28;20170;-75
2022/10/27 04:55:03;;;;;;;8.13;4.82;;;;;;;11.71;nan;-24143.97;5071961;28;20194;-75
2022/10/27 04:57:29;;;;;;;7.97;4.13;;;;;;;11.72;nan;-24144.41;5071268;28;20161;-80
2022/10/27 04:59:54;;;;;;;5.57;3.47;;;;;;;10.98;nan;-24123.69;5070793;28;20550;-80
2022/10/27 05:02:20;;;;;;;10.55;4.78;;;;;;;11.86;nan;-24148.22;5071112;28;20613;-77
2022/10/27 05:04:45;;;;;;;6.57;3.88;;;;;;;11.83;nan;-24147.50;5070408;28;20238;-77
2022/10/27 05:07:10;;;;;;;16.13;4.45;;;;;;;11.86;nan;-24148.22;5070398;28;20178;-78
2022/10/27 05:09:36;;;;;;;6.40;3.35;;;;;;;11.90;nan;-24149.47;5070506;28;20208;-78
2022/10/27 05:12:01;;;;;;;6.25;3.58;;;;;;;11.97;nan;-24151.31;5070732;28;20751;-79
2022/10/27 05:14:27;;;;;;;6.50;3.65;;;;;;;11.90;nan;-24149.47;5073388;28;20178;-75
2022/10/27 05:16:52;;;;;;;6.75;3.63;;;;;;;11.96;nan;-24151.03;5070204;28;20182;-75
2022/10/27 05:19:18;;;;;;;8.07;3.60;;;;;;;11.90;nan;-24149.34;5070425;28;20660;-75
2022/10/27 05:21:43;;;;;;;6.50;3.70;;;;;;;12.04;nan;-24153.13;5071742;28;20307;-76
2022/10/27 05:24:08;;;;;;;4.55;3.30;;;;;;;12.02;nan;-24152.56;5071616;28;20182;-77
2022/10/27 05:26:34;;;;;;;5.10;3.28;;;;;;;11.87;nan;-24148.63;5070984;28;20214;-76
2022/10/27 05:28:59;;;;;;;5.03;3.03;;;;;;;12.13;nan;-24155.66;5069831;28;20701;-76
2022/10/27 05:31:24;;;;;;;6.55;3.42;;;;;;;11.93;nan;-24150.19;5069922;28;20186;-75
2022/10/27 05:33:50;;;;;;;5.88;3.47;;;;;;;12.30;nan;-24160.47;5071362;28;20235;-76
2022/10/27 05:36:15;;;;;;;3.83;3.42;;;;;;;12.49;nan;-24165.81;5071126;28;20180;-75
2022/10/27 05:38:41;;;;;;;7.55;3.28;;;;;;;12.38;nan;-24162.72;5070081;28;20170;-75
2022/10/27 05:41:07;;;;;;;8.55;3.13;;;;;;;12.41;nan;-24163.56;5069757;28;20621;-74
2022/10/27 05:43:32;;;;;;;5.15;2.95;;;;;;;12.80;nan;-24174.53;5069769;28;20170;-74
2022/10/27 05:45:57;;;;;;;4.88;3.00;;;;;;;12.91;nan;-24177.47;5071707;28;20174;-75
2022/10/27 05:48:23;;;;;;;6.13;3.47;;;;;;;12.76;nan;-24173.25;5069802;28;20281;-77
2022/10/27 05:50:54;;;;;;;8.02;3.40;;;;;;;12.68;nan;-24171.16;5069799;28;20189;-76
2022/10/27 05:53:20;;;;;;;5.93;3.45;;;;;;;13.03;nan;-24180.84;5071515;28;20215;-75
2022/10/27 05:55:46;;;;;;;6.10;3.30;;;;;;;13.32;nan;-24188.88;5071296;28;20174;-78
2022/10/27 05:58:12;;;;;;;5.55;2.97;;;;;;;13.47;nan;-24192.94;5070191;28;20188;-66
2022/10/27 06:00:38;;;;;;;6.28;3.50;;;;;;;13.91;nan;-24205.16;5071597;28;20617;-63
2022/10/27 06:03:15;;;;;;;6.78;3.00;;;;;;;13.71;nan;-24199.81;5071652;28;20291;-66
2022/10/27 06:05:40;;;;;;;6.03;3.13;;;;;;;14.02;nan;-24208.38;5071537;28;20629;-63
2022/10/27 06:08:05;;;;;;;6.55;2.83;;;;;;;14.22;nan;-24213.72;5071099;28;20197;-63
2022/10/27 06:10:31;;;;;;;4.68;2.88;;;;;;;14.19;nan;-24213.00;5071436;28;20615;-65
2022/10/27 06:13:01;;;;;;;5.78;3.10;;;;;;;14.15;nan;-24212.03;5071395;28;20174;-65
2022/10/27 06:15:27;;;;;;;5.82;2.65;;;;;;;14.23;nan;-24214.00;5071608;28;20197;-63
2022/10/27 06:17:52;;;;;;;3.60;2.42;;;;;;;14.55;nan;-24222.97;5071595;28;20206;-65
2022/10/27 06:20:18;;;;;;;5.28;3.22;;;;;;;14.58;nan;-24223.81;5071591;28;20185;-63
2022/10/27 06:22:45;;;;;;;3.40;2.47;;;;;;;14.79;nan;-24229.69;5071300;28;20181;-64
2022/10/27 06:25:11;;;;;;;4.60;2.70;;;;;;;14.46;nan;-24220.59;5071078;28;20221;-63
2022/10/27 06:27:36;;;;;;;4.93;3.20;;;;;;;14.69;nan;-24226.91;5071381;28;20186;-63
2022/10/27 06:30:01;;;;;;;4.18;3.03;;;;;;;15.08;nan;-24237.53;5071198;28;20188;-62
2022/10/27 06:32:27;;;;;;;4.70;2.55;;;;;;;15.16;nan;-24239.94;5071394;28;20166;-63
2022/10/27 06:34:52;;;;;;;3.60;2.72;;;;;;;15.19;nan;-24240.63;5071222;28;20265;-64
2022/10/27 06:37:17;;;;;;;13.20;2.83;;;;;;;15.31;nan;-24244.13;5071064;28;20173;-62
2022/10/27 06:39:43;;;;;;;6.68;2.85;;;;;;;15.46;nan;-24248.19;5071372;28;20571;-63
2022/10/27 06:42:08;;;;;;;4.32;2.78;;;;;;;15.47;nan;-24248.63;5071220;28;20176;-65
2022/10/27 06:44:34;;;;;;;6.30;2.78;;;;;;;15.30;nan;-24243.72;5071382;28;20181;-65
2022/10/27 06:46:59;;;;;;;4.07;3.03;;;;;;;15.68;nan;-24254.34;5070988;28;20555;-64
2022/10/27 06:49:24;;;;;;;5.97;3.03;;;;;;;15.60;nan;-24251.97;5071057;28;20257;-63
2022/10/27 06:51:50;;;;;;;5.75;2.97;;;;;;;15.95;nan;-24261.78;5070946;28;20184;-64
2022/10/27 06:54:15;;;;;;;6.32;2.67;;;;;;;15.78;nan;-24257.16;5071370;28;20187;-64
2022/10/27 06:56:41;;;;;;;5.10;2.63;;;;;;;16.00;nan;-24263.03;5071028;28;20216;-68
2022/10/27 06:59:07;;;;;;;8.93;3.15;;;;;;;16.33;nan;-24272.25;5071692;28;20181;-61
2022/10/27 07:01:32;;;;;;;7.32;2.83;;;;;;;15.99;nan;-24262.75;5070710;28;20562;-65
2022/10/27 07:03:57;;;;;;;5.65;3.70;;;;;;;16.30;nan;-24271.41;5073558;28;20232;-63
2022/10/27 07:06:23;;;;;;;7.78;3.22;;;;;;;16.27;nan;-24270.59;5074361;28;20256;-64
2022/10/27 07:08:51;;;;;;;7.03;2.97;;;;;;;16.25;nan;-24270.16;5074604;28;20296;-65
2022/10/27 07:11:17;;;;;;;5.63;3.10;;;;;;;16.44;nan;-24275.19;5074391;28;20672;-65
2022/10/27 07:13:42;;;;;;;4.43;2.97;;;;;;;16.14;nan;-24266.94;5074364;28;20217;-64
2022/10/27 07:16:09;;;;;;;6.00;3.55;;;;;;;16.04;nan;-24264.28;5074792;28;20186;-64
2022/10/27 07:18:37;;;;;;;6.40;3.47;;;;;;;16.07;nan;-24265.13;5074775;28;20206;-64
2022/10/27 07:21:06;;;;;;;4.93;3.40;;;;;;;15.65;nan;-24253.50;5074392;28;20186;-63
2022/10/27 07:23:31;;;;;;;5.63;3.25;;;;;;;16.12;nan;-24266.38;5074465;28;20166;-66
2022/10/27 07:25:56;;;;;;;6.03;3.15;;;;;;;16.16;nan;-24267.66;5074522;28;20549;-64
2022/10/27 07:28:22;;;;;;;5.13;2.92;;;;;;;16.14;nan;-24267.09;5074498;28;20197;-62
2022/10/27 07:30:47;;;;;;;4.72;2.72;;;;;;;15.94;nan;-24261.34;5074555;28;20177;-63
2022/10/27 07:33:13;;;;;;;6.47;2.67;;;;;;;15.77;nan;-24256.88;5074115;28;20603;-65
2022/10/27 07:35:39;;;;;;;6.10;3.22;;;;;;;16.30;nan;-24271.41;5073783;28;20282;-64
2022/10/27 07:38:06;;;;;;;3.90;2.50;;;;;;;16.30;nan;-24271.56;5073716;28;20654;-66
2022/10/27 07:40:33;;;;;;;3.92;2.72;;;;;;;16.78;nan;-24284.84;5073946;28;20559;-63
2022/10/27 07:42:59;;;;;;;7.43;2.80;;;;;;;16.73;nan;-24283.44;5073408;28;20630;-65
2022/10/27 07:45:26;;;;;;;6.65;2.83;;;;;;;17.12;nan;-24294.06;5073493;28;20178;-64
2022/10/27 07:47:54;;;;;;;5.07;2.53;;;;;;;17.12;nan;-24294.06;5074038;28;20551;-63
2022/10/27 07:50:28;;;;;;;5.85;2.47;;;;;;;17.48;nan;-24303.97;5073808;28;20206;-64
2022/10/27 07:52:55;;;;;;;5.88;2.92;;;;;;;17.24;nan;-24297.41;5074080;28;20238;-65
2022/10/27 07:55:23;;;;;;;5.85;3.10;;;;;;;17.26;nan;-24297.97;5073554;28;20188;-63
2022/10/27 07:58:00;;;;;;;6.13;2.67;;;;;;;17.55;nan;-24306.06;5073650;28;20201;-62
2022/10/27 08:00:27;;;;;;;4.35;2.85;;;;;;;17.24;nan;-24297.41;5074163;28;20231;-64
2022/10/27 08:02:52;;;;;;;5.85;3.17;;;;;;;17.31;nan;-24299.22;5073329;28;20220;-64
2022/10/27 08:05:17;;;;;;;6.90;3.22;;;;;;;17.38;nan;-24301.31;5073653;28;20606;-63
2022/10/27 08:07:43;;;;;;;4.03;2.63;;;;;;;17.65;nan;-24308.72;5073603;28;20194;-64
2022/10/27 08:10:09;;;;;;;4.50;2.92;;;;;;;17.81;nan;-24313.03;5073792;28;20176;-64
2022/10/27 08:12:40;;;;;;;4.13;2.70;;;;;;;17.70;nan;-24309.97;5073549;28;20171;-66
2022/10/27 08:15:06;;;;;;;4.30;2.65;;;;;;;18.03;nan;-24319.19;5073086;28;20174;-63
2022/10/27 08:17:32;;;;;;;4.07;2.60;;;;;;;17.77;nan;-24311.91;5073858;28;20641;-63
2022/10/27 08:19:57;;;;;;;3.65;2.60;;;;;;;18.16;nan;-24322.66;5073364;28;20220;-65
2022/10/27 08:22:22;;;;;;;5.63;3.05;;;;;;;17.89;nan;-24315.28;5073255;28;20602;-65
2022/10/27 08:24:48;;;;;;;4.90;2.67;;;;;;;18.38;nan;-24328.94;5073267;28;20305;-61
2022/10/27 08:27:13;;;;;;;5.50;2.92;;;;;;;18.53;nan;-24332.97;5072840;28;20257;-65
2022/10/27 08:29:38;;;;;;;5.72;2.90;;;;;;;18.16;nan;-24322.81;5072769;28;20261;-64
2022/10/27 08:32:04;;;;;;;5.18;3.08;;;;;;;18.49;nan;-24331.84;5072608;28;20243;-65
2022/10/27 08:34:29;;;;;;;3.38;2.47;;;;;;;18.34;nan;-24327.81;5072856;28;20535;-63
2022/10/27 08:36:55;;;;;;;5.03;3.05;;;;;;;18.41;nan;-24329.75;5072896;28;20181;-65
2022/10/27 08:39:20;;;;;;;9.68;3.15;;;;;;;18.59;nan;-24334.50;5072643;28;20214;-64
2022/10/27 08:42:21;;;;;;;7.07;2.92;;;;;;;18.97;nan;-24345.09;5073037;28;20531;-63
2022/10/27 08:44:56;;;;;;;5.38;2.88;;;;;;;18.57;nan;-24333.94;5062435;28;20261;-62
2022/10/27 08:47:23;;;;;;;7.07;2.63;;;;;;;18.90;nan;-24343.28;5070659;28;20698;-64
2022/10/27 08:49:52;;;;;;;5.28;2.60;;;;;;;19.09;nan;-24348.44;5072264;28;20158;-65
2022/10/27 08:52:20;;;;;;;3.92;2.15;;;;;;;18.96;nan;-24344.81;5072164;28;20734;-62
2022/10/27 08:54:51;;;;;;;5.53;2.70;;;;;;;19.03;nan;-24346.75;5071772;28;20181;-61
2022/10/27 08:57:30;;;;;;;6.38;2.85;;;;;;;18.77;nan;-24339.66;5072155;28;20170;-64
2022/10/27 08:59:57;;;;;;;3.60;2.22;;;;;;;18.46;nan;-24331.00;5072088;28;20181;-67
2022/10/27 09:02:37;;;;;;;4.72;2.45;;;;;;;19.09;nan;-24348.44;5072162;28;20661;-65
2022/10/27 09:05:21;;;;;;;4.18;2.30;;;;;;;18.92;nan;-24343.69;5072165;28;20182;-62
2022/10/27 09:08:01;;;;;;;3.20;2.33;;;;;;;19.24;nan;-24352.47;5071495;28;20584;-63
2022/10/27 09:10:50;;;;;;;3.45;2.13;;;;;;;19.29;nan;-24353.84;5072214;28;20178;-64
2022/10/27 09:13:34;;;;;;;3.55;2.25;;;;;;;19.34;nan;-24355.38;5072137;28;20253;-66
2022/10/27 09:16:04;;;;;;;4.82;2.40;;;;;;;19.16;nan;-24350.38;5072164;28;20178;-64
2022/10/27 09:19:04;;;;;;;4.57;2.28;;;;;;;19.63;nan;-24363.31;5070373;28;20197;-66
2022/10/27 09:21:33;;;;;;;3.83;2.83;;;;;;;19.65;nan;-24363.88;5039169;28;20186;-65
2022/10/27 09:24:06;;;;;;;5.38;2.70;;;;;;;19.45;nan;-24358.16;5071660;28;20166;-65
2022/10/27 09:26:32;;;;;;;6.05;2.50;;;;;;;19.84;nan;-24369.00;5071183;28;20233;-64
2022/10/27 09:29:05;;;;;;;5.55;3.03;;;;;;;19.72;nan;-24365.69;5088674;28;20260;-62
2022/10/27 09:31:40;;;;;;;4.22;2.40;;;;;;;19.89;nan;-24370.41;5088639;28;20641;-65
2022/10/27 09:34:24;;;;;;;7.32;2.80;;;;;;;20.10;nan;-24376.25;5071831;28;20176;-63
2022/10/27 09:36:49;;;;;;;4.45;2.65;;;;;;;20.23;nan;-24379.84;5083900;28;20263;-65
2022/10/27 09:39:15;;;;;;;9.20;3.00;;;;;;;19.82;nan;-24368.59;5091933;28;20256;-69
2022/10/27 09:41:40;;;;;;;2.95;2.40;;;;;;;20.31;nan;-24381.94;5092166;28;20188;-63
2022/10/27 09:44:28;;;;;;;4.50;2.45;;;;;;;20.48;nan;-24386.53;5091888;28;20169;-64
2022/10/27 09:46:55;;;;;;;4.35;2.25;;;;;;;20.23;nan;-24379.84;5091718;28;20185;-62
2022/10/27 09:49:26;;;;;;;5.75;2.50;;;;;;;20.13;nan;-24377.06;5091710;28;20201;-65
2022/10/27 09:51:58;;;;;;;5.93;2.28;;;;;;;19.26;nan;-24353.16;5091836;28;20169;-63
2022/10/27 09:54:50;;;;;;;3.70;2.47;;;;;;;20.62;nan;-24390.53;5091831;28;20157;-66
2022/10/27 09:57:18;;;;;;;3.00;2.17;;;;;;;20.82;nan;-24395.94;5091751;28;20218;-63
2022/10/27 09:59:56;;;;;;;4.55;2.35;;;;;;;20.91;nan;-24398.31;5091470;28;20179;-64
2022/10/27 10:02:28;;;;;;;3.28;2.30;;;;;;;20.72;nan;-24393.19;5091352;28;20165;-63
2022/10/27 10:04:54;;;;;;;3.40;2.33;;;;;;;20.52;nan;-24387.63;5091230;28;20170;-65
2022/10/27 10:07:39;;;;;;;4.03;2.53;;;;;;;20.34;nan;-24382.63;5091722;28;20625;-62
2022/10/27 10:10:23;;;;;;;4.38;2.30;;;;;;;20.96;nan;-24399.69;5091531;28;20176;-66
2022/10/27 10:13:00;;;;;;;3.63;1.95;;;;;;;21.33;nan;-24409.81;5091724;28;20272;-65
2022/10/27 10:15:26;;;;;;;4.03;2.45;;;;;;;21.30;nan;-24409.13;5091630;28;20188;-65
2022/10/27 10:18:01;;;;;;;3.35;2.20;;;;;;;21.42;nan;-24412.31;5091744;28;20272;-64
2022/10/27 10:20:32;;;;;;;3.20;2.22;;;;;;;21.60;nan;-24417.31;5091450;28;20196;-65
2022/10/27 10:22:59;;;;;;;3.97;2.63;;;;;;;21.82;nan;-24423.25;5091429;28;20230;-64
2022/10/27 10:25:32;;;;;;;5.28;2.22;;;;;;;21.90;nan;-24425.63;5091560;28;20235;-64
2022/10/27 10:28:03;;;;;;;4.95;2.53;;;;;;;21.92;nan;-24426.16;5091728;28;20196;-64
2022/10/27 10:30:32;;;;;;;3.58;2.30;;;;;;;22.30;nan;-24436.41;5091788;28;20177;-63
2022/10/27 10:32:59;;;;;;;2.38;1.95;;;;;;;22.45;nan;-24440.56;5090852;28;20557;-64
2022/10/27 10:35:50;;;;;;;3.53;2.40;;;;;;;22.62;nan;-24445.25;5091432;28;20629;-66
2022/10/27 10:38:31;;;;;;;3.95;2.22;;;;;;;22.67;nan;-24446.50;5094560;28;20177;-64
2022/10/27 10:41:15;;;;;;;4.22;1.92;;;;;;;22.41;nan;-24439.47;5095293;28;20177;-65
2022/10/27 10:43:42;;;;;;;3.92;2.42;;;;;;;23.00;nan;-24455.63;5095456;28;20605;-64
2022/10/27 10:46:20;;;;;;;5.53;2.55;;;;;;;23.07;nan;-24457.44;5095369;28;20181;-65
2022/10/27 10:48:54;;;;;;;2.88;2.17;;;;;;;23.07;nan;-24457.44;5094803;28;20193;-63
2022/10/27 10:51:34;;;;;;;3.35;2.38;;;;;;;22.95;nan;-24454.25;5095340;28;20174;-64
2022/10/27 10:54:12;;;;;;;3.20;2.17;;;;;;;22.86;nan;-24451.91;5095346;28;20175;-63
2022/10/27 10:56:38;;;;;;;4.70;2.60;;;;;;;22.69;nan;-24447.19;5095071;28;20161;-63
2022/10/27 10:59:12;;;;;;;4.13;2.53;;;;;;;22.69;nan;-24447.19;5094686;28;20209;-63
2022/10/27 11:01:43;;;;;;;3.05;1.90;;;;;;;22.58;nan;-24444.16;5094991;28;20173;-66
2022/10/27 11:04:16;;;;;;;3.00;2.20;;;;;;;22.58;nan;-24438.63;5094673;28;20249;-65
2022/10/27 11:06:55;;;;;;;2.65;1.83;;;;;;;22.38;nan;-24438.63;5094911;28;20170;-63
2022/10/27 11:09:21;;;;;;;3.22;2.15;;;;;;;22.88;nan;-24452.47;5095021;28;20197;-63
2022/10/27 11:11:48;;;;;;;4.55;2.45;;;;;;;22.88;nan;-24452.47;5094565;28;20162;-63
2022/10/27 11:14:18;;;;;;;2.90;2.25;;;;;;;22.68;nan;-24446.94;5094259;28;20315;-63
2022/10/27 11:16:50;;;;;;;3.70;2.17;;;;;;;23.13;81.15;-24459.22;5094537;28;20636;-64
2022/10/27 11:19:19;;;;;;;5.45;2.30;;;;;;;23.08;nan;-24457.72;5094493;28;20276;-62
2022/10/27 11:21:59;;;;;;;3.10;2.13;;;;;;;23.00;nan;-24455.63;5093090;28;20651;-65
2022/10/27 11:24:45;;;;;;;4.78;2.33;;;;;;;23.08;nan;-24457.72;5094575;28;20169;-64
2022/10/27 11:27:28;;;;;;;4.35;2.70;;;;;;;23.23;nan;-24461.84;5094087;28;20192;-63
2022/10/27 11:30:03;;;;;;;3.40;2.20;;;;;;;23.08;nan;-24457.84;5094142;28;20196;-65
2022/10/27 11:33:05;;;;;;;3.72;2.33;;;;;;;23.08;nan;-24457.84;5093827;28;20188;-64
2022/10/27 11:35:43;;;;;;;4.80;2.40;;;;;;;23.08;nan;-24457.84;5025687;28;20185;-64
2022/10/27 11:38:23;;;;;;;4.45;2.10;;;;;;;23.04;nan;-24456.59;5094108;28;20550;-68
2022/10/27 11:41:07;;;;;;;4.15;2.05;;;;;;;23.52;nan;-24469.88;5094130;28;20173;-66
2022/10/27 11:43:35;;;;;;;5.35;2.47;;;;;;;23.55;nan;-24470.69;5094157;28;20185;-66
2022/10/27 11:46:19;;;;;;;6.63;2.65;;;;;;;23.55;nan;-24470.69;5094268;28;20169;-64
2022/10/27 11:48:52;;;;;;;3.90;2.47;;;;;;;23.75;nan;-24476.09;5093261;28;20185;-65
2022/10/27 11:51:30;;;;;;;4.65;2.63;;;;;;;23.71;nan;-24475.13;5094254;28;20208;-65